Tappen, North Dakota
Current Conditions -  °F | °C
As of 10:56 AM on Thursday 30 Oct 2014 (Local Time) from KJMS Reporting Station
Overcast Overcast  
Wind Chill: 24°   Ceiling: 800
Heat Index: 34°   Visibility: 9mi
Dew Point: 31°   Wind: 15mph
Humidity: 89%   Direction: 350°N
Pressure: 30.27"   Gusts: NA
Location:  46.87°N, 99.64°W
Report Text: KJMS 301556Z AUTO 35013KT 9SM OVC008 01/M01 A3027 RMK AO2 SLP267 T00111006
Loading
Personal Weather Stations






























Interactive Weather Map
Tropical Storm Tracking
New forecast layout! Learn more

10-Day Weather Forecast

Advertisements
Track Severe Weather on mobile